地図

経路データ

SID SEASON NUMBER BASIN SUBBASIN NAME ISO_TIME NATURE LAT LON WMO_WIND WMO_PRES WMO_AGENCY TRACK_TYPE DIST2LAND LANDFALL IFLAG USA_AGENCY USA_ATCF_ID USA_LAT USA_LON USA_RECORD USA_STATUS USA_WIND USA_PRES USA_SSHS USA_R34_NE USA_R34_SE USA_R34_SW USA_R34_NW USA_R50_NE USA_R50_SE USA_R50_SW USA_R50_NW USA_R64_NE USA_R64_SE USA_R64_SW USA_R64_NW USA_POCI USA_ROCI USA_RMW USA_EYE TOKYO_LAT TOKYO_LON TOKYO_GRADE TOKYO_WIND TOKYO_PRES TOKYO_R50_DIR TOKYO_R50_LONG TOKYO_R50_SHORT TOKYO_R30_DIR TOKYO_R30_LONG TOKYO_R30_SHORT TOKYO_LAND CMA_LAT CMA_LON CMA_CAT CMA_WIND CMA_PRES HKO_LAT HKO_LON HKO_CAT HKO_WIND HKO_PRES NEWDELHI_LAT NEWDELHI_LON NEWDELHI_GRADE NEWDELHI_WIND NEWDELHI_PRES NEWDELHI_CI NEWDELHI_DP NEWDELHI_POCI REUNION_LAT REUNION_LON REUNION_TYPE REUNION_WIND REUNION_PRES REUNION_TNUM REUNION_CI REUNION_RMW REUNION_R34_NE REUNION_R34_SE REUNION_R34_SW REUNION_R34_NW REUNION_R50_NE REUNION_R50_SE REUNION_R50_SW REUNION_R50_NW REUNION_R64_NE REUNION_R64_SE REUNION_R64_SW REUNION_R64_NW BOM_LAT BOM_LON BOM_TYPE BOM_WIND BOM_PRES BOM_TNUM BOM_CI BOM_RMW BOM_R34_NE BOM_R34_SE BOM_R34_SW BOM_R34_NW BOM_R50_NE BOM_R50_SE BOM_R50_SW BOM_R50_NW BOM_R64_NE BOM_R64_SE BOM_R64_SW BOM_R64_NW BOM_ROCI BOM_POCI BOM_EYE BOM_POS_METHOD BOM_PRES_METHOD NADI_LAT NADI_LON NADI_CAT NADI_WIND NADI_PRES WELLINGTON_LAT WELLINGTON_LON WELLINGTON_WIND WELLINGTON_PRES DS824_LAT DS824_LON DS824_STAGE DS824_WIND DS824_PRES TD9636_LAT TD9636_LON TD9636_STAGE TD9636_WIND TD9636_PRES TD9635_LAT TD9635_LON TD9635_WIND TD9635_PRES TD9635_ROCI NEUMANN_LAT NEUMANN_LON NEUMANN_CLASS NEUMANN_WIND NEUMANN_PRES MLC_LAT MLC_LON MLC_CLASS MLC_WIND MLC_PRES USA_GUST BOM_GUST BOM_GUST_PER REUNION_GUST REUNION_GUST_PER USA_SEAHGT USA_SEARAD_NE USA_SEARAD_SE USA_SEARAD_SW USA_SEARAD_NW STORM_SPEED STORM_DIR
1962251N17086 1962 75 NI BB NOT_NAMED 1962-09-07 18:00:00 TS 16.5000 86.1000 main 292 292 O________O____ jtwc_io IO091962 16.5000 86.1000 -1 16.5000 86.1000 TC 1 87
1962251N17086 1962 75 NI BB NOT_NAMED 1962-09-07 21:00:00 TS 16.5024 86.1425 main 292 285 P________P____ IO091962 16.5024 86.1425 -1 16.5024 86.1425 TC 1 270
1962251N17086 1962 75 NI BB NOT_NAMED 1962-09-08 00:00:00 TS 16.5000 86.0000 main 285 256 O________O____ jtwc_io IO091962 16.5000 86.0000 -1 16.5000 86.0000 TC 25 6 269
1962251N17086 1962 75 NI BB NOT_NAMED 1962-09-08 03:00:00 TS 16.4934 85.5421 main 250 215 P________PO___ IO091962 16.4925 85.5474 -1 16.4925 85.5474 TC 25 16.5000 85.5000 1 11 270
1962251N17086 1962 75 NI BB NOT_NAMED 1962-09-08 06:00:00 TS 16.5039 84.8858 main 215 162 O________OP___ jtwc_io IO091962 16.5000 84.9000 -1 16.5000 84.9000 TC 25 16.5193 84.8290 1 13 272
1962251N17086 1962 75 NI BB NOT_NAMED 1962-09-08 09:00:00 TS 16.5419 84.1963 main 162 113 P________PP___ IO091962 16.5426 84.2076 -1 16.5426 84.2076 TC 25 16.5400 84.1663 1 13 274
1962251N17086 1962 75 NI BB NOT_NAMED 1962-09-08 12:00:00 TS 16.5886 83.5068 main 113 57 O________OP___ jtwc_io IO091962 16.6000 83.5000 -1 16.6000 83.5000 TC 25 16.5656 83.5205 1 13 274
1962251N17086 1962 75 NI BB NOT_NAMED 1962-09-08 15:00:00 TS 16.6231 82.8899 main 57 0 P________PO___ IO091962 16.6347 82.8848 -1 16.6347 82.8848 TC 25 16.6000 82.9000 1 12 275
1962251N17086 1962 75 NI BB NOT_NAMED 1962-09-08 18:00:00 TS 16.6839 82.3021 main 0 0 O________OP___ jtwc_io IO091962 16.7000 82.3000 -1 16.7000 82.3000 TC 25 16.6516 82.3064 1 11 278
1962251N17086 1962 75 NI BB NOT_NAMED 1962-09-08 21:00:00 TS 16.7906 81.7195 main 0 0 P________PP___ IO091962 16.8121 81.7222 -1 16.8121 81.7222 TC 25 16.7477 81.7141 1 12 284
1962251N17086 1962 75 NI BB NOT_NAMED 1962-09-09 00:00:00 TS 16.9733 81.0966 main 0 0 O________OP___ jtwc_io IO091962 17.0000 81.1000 -1 17.0000 81.1000 TC 25 16.9200 81.0899 1 13 289
1962251N17086 1962 75 NI BB NOT_NAMED 1962-09-09 03:00:00 TS 17.2165 80.3961 main 0 0 P________PO___ IO091962 17.2247 80.3941 -1 17.2247 80.3941 TC 25 17.2000 80.4000 1 16 295
1962251N17086 1962 75 NI BB NOT_NAMED 1962-09-09 06:00:00 TS 17.6259 79.6055 main 0 0 O________OP___ jtwc_io IO091962 17.6000 79.6000 -1 17.6000 79.6000 TC 25 17.6778 79.6164 1 19 303
1962251N17086 1962 75 NI BB NOT_NAMED 1962-09-09 09:00:00 TS 18.2497 78.7406 main 0 0 P________PP___ IO091962 18.2498 78.7310 -1 18.2498 78.7310 TC 25 18.2494 78.7597 1 21 306
1962251N17086 1962 75 NI AS NOT_NAMED 1962-09-09 12:00:00 TS 18.8737 77.8159 main 0 0 O________OP___ jtwc_io IO091962 18.9000 77.8000 -1 18.9000 77.8000 TC 25 18.8212 77.8476 1 21 300
1962251N17086 1962 75 NI AS NOT_NAMED 1962-09-09 15:00:00 TS 19.2880 76.8763 main 0 0 P________PO___ IO091962 19.2820 76.8644 -1 19.2820 76.8644 TC 25 19.3000 76.9000 1 19 289
1962251N17086 1962 75 NI AS NOT_NAMED 1962-09-09 18:00:00 TS 19.5089 75.8951 main 0 0 O________OP___ jtwc_io IO091962 19.5000 75.9000 -1 19.5000 75.9000 TC 25 19.5266 75.8852 1 19 280
1962251N17086 1962 75 NI AS NOT_NAMED 1962-09-09 21:00:00 TS 19.6232 74.8695 main 0 0 P________PP___ IO091962 19.6075 74.8766 -1 19.6075 74.8766 TC 25 19.6546 74.8553 1 19 276
1962251N17086 1962 75 NI AS NOT_NAMED 1962-09-10 00:00:00 TS 19.7183 73.8910 main 0 0 O________OP___ jtwc_io IO091962 19.7000 73.9000 -1 19.7000 73.9000 TC 25 19.7550 73.8730 1 18 279
1962251N17086 1962 75 NI AS NOT_NAMED 1962-09-10 03:00:00 TS 19.9031 73.0216 main 0 0 P________PO___ IO091962 19.9046 73.0325 -1 19.9046 73.0325 TC 25 19.9000 73.0000 1 16 288
1962251N17086 1962 75 NI AS NOT_NAMED 1962-09-10 06:00:00 TS 20.2047 72.2995 main 52 45 O________OP___ jtwc_io IO091962 20.2000 72.3000 -1 20.2000 72.3000 TC 25 20.2141 72.2985 1 14 299
1962251N17086 1962 75 NI AS NOT_NAMED 1962-09-10 09:00:00 TS 20.5935 71.7112 main 45 0 P________PP___ IO091962 20.5994 71.7125 -1 20.5994 71.7125 TC 25 20.5817 71.7084 1 13 307
1962251N17086 1962 75 NI AS NOT_NAMED 1962-09-10 12:00:00 TS 20.9862 71.1963 main 0 0 O________OP___ jtwc_io IO091962 21.0000 71.2000 -1 21.0000 71.2000 TC 25 20.9585 71.1890 1 12 305
1962251N17086 1962 75 NI AS NOT_NAMED 1962-09-10 15:00:00 TS 21.2866 70.6615 main 0 0 P________PO___ IO091962 21.2799 70.6422 -1 21.2799 70.6422 TC 25 21.3000 70.7000 1 12 297
1962251N17086 1962 75 NI AS NOT_NAMED 1962-09-10 18:00:00 TS 21.5186 70.0976 main 0 0 O________OP___ jtwc_io IO091962 21.5000 70.1000 -1 21.5000 70.1000 TC 25 21.5557 70.0928 1 11 293
1962251N17086 1962 75 NI AS NOT_NAMED 1962-09-10 21:00:00 TS 21.7328 69.5433 main 10 0 P________PP___ IO091962 21.7151 69.5550 -1 21.7151 69.5550 TC 25 21.7682 69.5198 1 10 293
1962251N17086 1962 75 NI AS NOT_NAMED 1962-09-11 00:00:00 TS 21.9155 69.0790 main 23 23 O________OP___ jtwc_io IO091962 21.9000 69.1000 -1 21.9000 69.1000 TC 25 21.9464 69.0369 1 8 294
1962251N17086 1962 75 NI AS NOT_NAMED 1962-09-11 03:00:00 TS 22.0716 68.7400 main 30 30 P________PO___ IO091962 22.0573 68.7599 -1 22.0573 68.7599 TC 25 22.1000 68.7000 1 5 304
1962251N17086 1962 75 NI AS NOT_NAMED 1962-09-11 06:00:00 TS 22.2179 68.5964 main 32 30 O________OP___ jtwc_io IO091962 22.2000 68.6000 -1 22.2000 68.6000 TC 25 22.2538 68.5893 1 3 345
1962251N17086 1962 75 NI AS NOT_NAMED 1962-09-11 09:00:00 TS 22.3672 68.6536 main 23 23 P________PP___ IO091962 22.3575 68.6698 -1 22.3575 68.6698 TC 25 22.3866 68.6213 1 3 30
1962251N17086 1962 75 NI AS NOT_NAMED 1962-09-11 12:00:00 TS 22.5004 68.7726 main 23 23 O________OP___ jtwc_io IO091962 22.5000 68.8000 -1 22.5000 68.8000 TC 25 22.5011 68.7177 1 3 26
1962251N17086 1962 75 NI AS NOT_NAMED 1962-09-11 15:00:00 TS 22.6100 68.7817 main 30 30 P________PO___ IO091962 22.6150 68.7726 -1 22.6150 68.7726 TC 25 22.6000 68.8000 1 2 345
1962251N17086 1962 75 NI AS NOT_NAMED 1962-09-11 18:00:00 TS 22.6951 68.7193 main 39 39 O________OP___ jtwc_io IO091962 22.7000 68.7000 -1 22.7000 68.7000 TC 25 22.6853 68.7578 1 2 324
1962251N17086 1962 75 NI AS NOT_NAMED 1962-09-11 21:00:00 TS 22.7525 68.6675 main 30 30 P________PP___ IO091962 22.7500 68.6575 -1 22.7500 68.6575 TC 25 22.7575 68.6875 1 2 316
1962251N17086 1962 75 NI AS NOT_NAMED 1962-09-12 00:00:00 TS 22.8086 68.5995 main 35 30 O________OP___ jtwc_io IO091962 22.8000 68.6000 -1 22.8000 68.6000 TC 25 22.8259 68.5984 1 2 314
1962251N17086 1962 75 NI AS NOT_NAMED 1962-09-12 03:00:00 TS 22.8950 68.5050 main 30 30 P________PO___ IO091962 22.8925 68.5075 -1 22.8925 68.5075 TC 25 22.9000 68.5000 1 3 316
1962251N17086 1962 75 NI AS NOT_NAMED 1962-09-12 06:00:00 TS 22.9990 68.4024 main 30 30 O________OP___ jtwc_io IO091962 23.0000 68.4000 -1 23.0000 68.4000 TC 25 22.9969 68.4072 1 3 318
1962251N17086 1962 75 NI AS NOT_NAMED 1962-09-12 09:00:00 TS 23.1000 68.3025 main 32 30 P________PP___ IO091962 23.1000 68.3000 -1 23.1000 68.3000 TC 25 23.1000 68.3075 1 3 317
1962251N17086 1962 75 NI AS NOT_NAMED 1962-09-12 12:00:00 TS 23.2010 68.2014 main 39 30 O________OP___ jtwc_io IO091962 23.2000 68.2000 -1 23.2000 68.2000 TC 25 23.2031 68.2041 1 3 318
1962251N17086 1962 75 NI AS NOT_NAMED 1962-09-12 15:00:00 TS 23.3050 68.1000 main 35 24 P________PO___ IO091962 23.3075 68.1000 -1 23.3075 68.1000 TC 25 23.3000 68.1000 1 3 317
1962251N17086 1962 75 NI AS NOT_NAMED 1962-09-12 18:00:00 TS 23.3954 68.0027 main 30 30 O________OP___ jtwc_io IO091962 23.4000 68.0000 -1 23.4000 68.0000 TC 25 23.3862 68.0081 1 2 311
1962251N17086 1962 75 NI AS NOT_NAMED 1962-09-12 21:00:00 TS 23.4550 67.9049 main 32 32 P________PP___ IO091962 23.4500 67.9000 -1 23.4500 67.9000 TC 25 23.4649 67.9149 1 2 303
1962251N17086 1962 75 NI AS NOT_NAMED 1962-09-13 00:00:00 TS 23.5121 67.8048 main 33 22 O________OP___ jtwc_io IO091962 23.5000 67.8000 -1 23.5000 67.8000 TC 25 23.5362 67.8143 1 2 309
1962251N17086 1962 75 NI AS NOT_NAMED 1962-09-13 03:00:00 TS 23.6000 67.7050 main 22 11 P________PO___ IO091962 23.6000 67.7075 -1 23.6000 67.7075 TC 25 23.6000 67.7000 1 3 311
1962251N17086 1962 75 NI AS NOT_NAMED 1962-09-13 06:00:00 TS 23.6871 67.5881 main 11 11 O________OP___ jtwc_io IO091962 23.7000 67.6000 -1 23.7000 67.6000 TC 25 23.6613 67.5644 1 3 302
1962251N17086 1962 75 NI AS NOT_NAMED 1962-09-13 09:00:00 TS 23.7483 67.4433 main 23 15 P________PP___ IO091962 23.7650 67.4575 -1 23.7650 67.4575 TC 25 23.7150 67.4150 1 3 290
1962251N17086 1962 75 NI AS NOT_NAMED 1962-09-13 12:00:00 TS 23.7871 67.2860 main 23 23 O________OP___ jtwc_io IO091962 23.8000 67.3000 -1 23.8000 67.3000 TC 25 23.7613 67.2581 1 3 280
1962251N17086 1962 75 NI AS NOT_NAMED 1962-09-13 15:00:00 TS 23.8000 67.1333 main 37 37 P________PO___ IO091962 23.8000 67.1499 -1 23.8000 67.1499 TC 25 23.8000 67.1000 1 3 275
1962251N17086 1962 75 NI AS NOT_NAMED 1962-09-13 18:00:00 TS 23.8106 66.9914 main 46 46 O________OP___ jtwc_io IO091962 23.8000 67.0000 -1 23.8000 67.0000 TC 25 23.8319 66.9743 1 3 282
1962251N17086 1962 75 NI AS NOT_NAMED 1962-09-13 21:00:00 TS 23.8523 66.8533 main 51 51 P________PP___ IO091962 23.8500 66.8575 -1 23.8500 66.8575 TC 25 23.8571 66.8449 1 3 287
1962251N17086 1962 75 NI AS NOT_NAMED 1962-09-14 00:00:00 TS 23.8929 66.6977 main 71 71 O________OP___ jtwc_io IO091962 23.9000 66.7000 -1 23.9000 66.7000 TC 25 23.8787 66.6930 1 3 279
1962251N17086 1962 75 NI AS NOT_NAMED 1962-09-14 03:00:00 TS 23.9000 66.5150 main 92 92 P________PO___ IO091962 23.8999 66.5224 -1 23.8999 66.5224 TC 25 23.9000 66.5000 1 4 272
1962251N17086 1962 75 NI AS NOT_NAMED 1962-09-14 06:00:00 TS 23.9093 66.2811 main 108 108 O________OP___ jtwc_io IO091962 23.9000 66.3000 -1 23.9000 66.3000 TC 25 23.9233 66.2526 1 5 275
1962251N17086 1962 75 NI AS NOT_NAMED 1962-09-14 09:00:00 TS 23.9423 65.9930 main 123 120 P________PP___ IO091962 23.9377 66.0176 -1 23.9377 66.0176 TC 25 23.9484 65.9602 1 6 278
1962251N17086 1962 75 NI AS NOT_NAMED 1962-09-14 12:00:00 TS 23.9871 65.6688 main 135 135 O________OP___ jtwc_io IO091962 24.0000 65.7000 -1 24.0000 65.7000 TC 25 23.9742 65.6376 1 6 275
1962251N17086 1962 75 NI AS NOT_NAMED 1962-09-14 15:00:00 NR 24.0000 65.3000 main 145 __________O___ IO091962 -1 TC 24.0000 65.3000 1 7 272

IBTrACS Databaseについて

本データベースは、米国NOAAが公開する1842年以降の世界の熱帯低気圧のベストトラックデータアーカイブInternational Best Track Archive for Climate Stewardship (IBTrACS)を、ウェブで閲覧しやすい形式に変換したものです。

最終更新日:2021-12-08